Time,TemperatureF,DewpointF,PressureIn,WindDirection,WindDirectionDegrees,WindSpeedMPH,WindSpeedGustMPH,Humidity,HourlyPrecipIn,Conditions,Clouds,dailyrainin,SoftwareType,DateUTC
2013-05-13 00:01:00,43.0,34.7,29.88,North,11,0.0,4.0,72,0.00,,,0.00,WUHU216DAVISVP2,2013-05-13 04:01:00,
2013-05-13 00:06:00,42.5,34.5,29.88,North,11,0.0,3.0,73,0.00,,,0.00,WUHU216DAVISVP2,2013-05-13 04:06:00,
2013-05-13 00:11:00,41.9,34.6,29.88,North,11,0.0,3.0,75,0.00,,,0.00,WUHU216DAVISVP2,2013-05-13 04:11:00,
2013-05-13 00:16:00,41.1,34.5,29.89,North,11,0.0,1.0,77,0.00,,,0.00,WUHU216DAVISVP2,2013-05-13 04:16:00,
2013-05-13 00:21:00,40.5,34.5,29.89,North,11,0.0,1.0,79,0.00,,,0.00,WUHU216DAVISVP2,2013-05-13 04:21:00,
2013-05-13 00:26:00,39.9,34.2,29.89,North,11,1.0,1.0,80,0.00,,,0.00,WUHU216DAVISVP2,2013-05-13 04:26:00,
2013-05-13 00:31:00,39.4,34.7,29.89,North,9,1.0,1.0,83,0.00,,,0.00,WUHU216DAVISVP2,2013-05-13 04:31:00,
2013-05-13 00:36:00,38.7,34.6,29.90,South,185,1.3,2.0,85,0.00,,,0.00,WUHU216DAVISVP2,2013-05-13 04:36:00,
2013-05-13 00:41:00,38.4,34.6,29.90,WNW,284,1.0,2.0,86,0.00,,,0.00,WUHU216DAVISVP2,2013-05-13 04:41:00,
2013-05-13 00:46:00,38.0,34.4,29.90,WSW,242,1.0,2.0,87,0.00,,,0.00,WUHU216DAVISVP2,2013-05-13 04:46:00,
2013-05-13 00:51:00,37.7,34.4,29.90,SW,221,1.0,2.0,88,0.00,,,0.00,WUHU216DAVISVP2,2013-05-13 04:51:00,
2013-05-13 00:56:00,37.5,34.2,29.90,SW,221,1.0,2.0,88,0.00,,,0.00,WUHU216DAVISVP2,2013-05-13 04:56:00,
2013-05-13 01:01:00,37.1,33.8,29.90,South,181,0.0,1.0,88,0.00,,,0.00,WUHU216DAVISVP2,2013-05-13 05:01:00,
2013-05-13 01:06:00,36.8,33.8,29.90,WNW,283,0.0,1.0,89,0.00,,,0.00,WUHU216DAVISVP2,2013-05-13 05:06:00,
2013-05-13 01:11:00,36.6,33.9,29.90,WNW,283,0.0,1.0,90,0.00,,,0.00,WUHU216DAVISVP2,2013-05-13 05:11:00,
2013-05-13 01:16:00,36.4,33.7,29.90,WSW,253,1.8,2.0,90,0.00,,,0.00,WUHU216DAVISVP2,2013-05-13 05:16:00,
2013-05-13 01:21:00,36.3,33.9,29.90,WSW,255,1.0,2.0,91,0.00,,,0.00,WUHU216DAVISVP2,2013-05-13 05:21:00,
2013-05-13 01:26:00,36.2,33.8,29.90,WSW,255,0.0,2.0,91,0.00,,,0.00,WUHU216DAVISVP2,2013-05-13 05:26:00,
2013-05-13 01:31:00,36.1,33.7,29.91,WSW,255,1.0,2.0,91,0.00,,,0.00,WUHU216DAVISVP2,2013-05-13 05:31:00,
2013-05-13 01:36:00,36.4,34.2,29.91,North,8,1.6,2.0,92,0.00,,,0.00,WUHU216DAVISVP2,2013-05-13 05:36:00,
2013-05-13 01:41:00,36.8,34.6,29.91,ESE,111,1.0,2.0,92,0.00,,,0.00,WUHU216DAVISVP2,2013-05-13 05:41:00,
2013-05-13 01:46:00,37.2,34.8,29.91,SE,132,0.0,2.0,91,0.00,,,0.00,WUHU216DAVISVP2,2013-05-13 05:46:00,
2013-05-13 01:51:00,37.6,34.9,29.91,North,359,2.0,2.0,90,0.00,,,0.00,WUHU216DAVISVP2,2013-05-13 05:51:00,
2013-05-13 01:56:00,38.1,35.4,29.90,East,100,1.1,2.0,90,0.00,,,0.00,WUHU216DAVISVP2,2013-05-13 05:56:00,
2013-05-13 02:01:00,38.4,35.4,29.90,NW,312,1.0,2.0,89,0.00,,,0.00,WUHU216DAVISVP2,2013-05-13 06:01:00,
2013-05-13 02:06:00,38.7,35.4,29.90,NW,313,0.0,2.0,88,0.00,,,0.00,WUHU216DAVISVP2,2013-05-13 06:06:00,
2013-05-13 02:11:00,38.8,35.5,29.90,NW,313,0.0,2.0,88,0.00,,,0.00,WUHU216DAVISVP2,2013-05-13 06:11:00,
2013-05-13 02:16:00,39.1,35.5,29.91,WNW,297,1.5,3.0,87,0.00,,,0.00,WUHU216DAVISVP2,2013-05-13 06:16:00,
2013-05-13 02:21:00,39.4,35.8,29.91,WSW,257,0.0,3.0,87,0.00,,,0.00,WUHU216DAVISVP2,2013-05-13 06:21:00,
2013-05-13 02:26:00,39.7,35.9,29.91,NNW,327,2.2,4.0,86,0.00,,,0.00,WUHU216DAVISVP2,2013-05-13 06:26:00,
2013-05-13 02:31:00,40.5,35.4,29.91,NNE,33,2.0,4.0,82,0.00,,,0.00,WUHU216DAVISVP2,2013-05-13 06:31:00,
2013-05-13 02:36:00,41.3,35.3,29.91,NNE,31,6.0,6.0,79,0.00,,,0.00,WUHU216DAVISVP2,2013-05-13 06:36:00,
2013-05-13 02:41:00,41.7,35.4,29.91,NNE,22,2.0,6.0,78,0.00,,,0.00,WUHU216DAVISVP2,2013-05-13 06:41:00,
2013-05-13 02:46:00,41.8,35.5,29.92,NW,326,1.1,6.0,78,0.00,,,0.00,WUHU216DAVISVP2,2013-05-13 06:46:00,
2013-05-13 02:51:00,41.7,35.4,29.92,WNW,302,0.0,6.0,78,0.00,,,0.00,WUHU216DAVISVP2,2013-05-13 06:51:00,
2013-05-13 02:56:00,41.6,35.9,29.92,WNW,302,0.0,3.0,80,0.00,,,0.00,WUHU216DAVISVP2,2013-05-13 06:56:00,
2013-05-13 03:01:00,41.6,35.9,29.91,WNW,302,1.0,2.0,80,0.00,,,0.00,WUHU216DAVISVP2,2013-05-13 07:01:00,
2013-05-13 03:06:00,41.4,36.0,29.91,WNW,299,1.0,1.0,81,0.00,,,0.00,WUHU216DAVISVP2,2013-05-13 07:06:00,
2013-05-13 03:11:00,41.3,36.2,29.92,WNW,300,0.0,1.0,82,0.00,,,0.00,WUHU216DAVISVP2,2013-05-13 07:11:00,
2013-05-13 03:16:00,41.2,36.1,29.92,WNW,300,0.0,1.0,82,0.00,,,0.00,WUHU216DAVISVP2,2013-05-13 07:16:00,
2013-05-13 03:21:00,41.2,36.4,29.91,WNW,300,1.0,1.0,83,0.00,,,0.00,WUHU216DAVISVP2,2013-05-13 07:21:00,
2013-05-13 03:26:00,41.1,36.3,29.91,WNW,302,1.0,1.0,83,0.00,,,0.00,WUHU216DAVISVP2,2013-05-13 07:26:00,
2013-05-13 03:31:00,40.9,36.4,29.91,West,277,1.2,2.0,84,0.00,,,0.00,WUHU216DAVISVP2,2013-05-13 07:31:00,
2013-05-13 03:36:00,40.6,35.8,29.91,East,88,1.0,2.0,83,0.00,,,0.00,WUHU216DAVISVP2,2013-05-13 07:36:00,
2013-05-13 03:41:00,40.5,35.4,29.91,WNW,286,3.0,4.0,82,0.00,,,0.00,WUHU216DAVISVP2,2013-05-13 07:41:00,
2013-05-13 03:46:00,40.6,35.5,29.92,SW,228,1.0,4.0,82,0.00,,,0.00,WUHU216DAVISVP2,2013-05-13 07:46:00,
2013-05-13 03:51:00,40.6,34.6,29.92,South,171,1.1,4.0,79,0.00,,,0.00,WUHU216DAVISVP2,2013-05-13 07:51:00,
2013-05-13 03:56:00,40.9,34.6,29.91,NNE,32,1.2,5.0,78,0.00,,,0.00,WUHU216DAVISVP2,2013-05-13 07:56:00,
2013-05-13 04:01:00,41.4,34.5,29.91,West,259,1.3,5.0,76,0.00,,,0.00,WUHU216DAVISVP2,2013-05-13 08:01:00,
2013-05-13 04:06:00,41.9,34.3,29.91,WNW,285,3.1,7.0,74,0.00,,,0.00,WUHU216DAVISVP2,2013-05-13 08:06:00,
2013-05-13 04:11:00,42.3,33.9,29.92,NNW,330,1.1,7.0,72,0.00,,,0.00,WUHU216DAVISVP2,2013-05-13 08:11:00,
2013-05-13 04:16:00,42.6,33.9,29.91,NW,312,1.1,7.0,71,0.00,,,0.00,WUHU216DAVISVP2,2013-05-13 08:16:00,
2013-05-13 04:21:00,42.7,34.0,29.91,NNE,22,3.1,7.0,71,0.00,,,0.00,WUHU216DAVISVP2,2013-05-13 08:21:00,
2013-05-13 04:26:00,42.7,34.0,29.92,WNW,295,1.0,5.0,71,0.00,,,0.00,WUHU216DAVISVP2,2013-05-13 08:26:00,
2013-05-13 04:31:00,42.6,34.6,29.92,NNE,27,1.0,5.0,73,0.00,,,0.00,WUHU216DAVISVP2,2013-05-13 08:31:00,
2013-05-13 04:36:00,42.6,34.6,29.93,NNE,27,0.0,4.0,73,0.00,,,0.00,WUHU216DAVISVP2,2013-05-13 08:36:00,
2013-05-13 04:41:00,42.5,34.9,29.93,NNE,27,1.0,2.0,74,0.00,,,0.00,WUHU216DAVISVP2,2013-05-13 08:41:00,
2013-05-13 04:46:00,42.3,35.0,29.93,NNE,27,1.0,2.0,75,0.00,,,0.00,WUHU216DAVISVP2,2013-05-13 08:46:00,
2013-05-13 04:51:00,42.3,34.3,29.93,West,259,6.0,6.0,73,0.00,,,0.00,WUHU216DAVISVP2,2013-05-13 08:51:00,
2013-05-13 04:56:00,42.7,31.8,29.93,NW,305,9.0,13.0,65,0.00,,,0.00,WUHU216DAVISVP2,2013-05-13 08:56:00,
2013-05-13 05:01:00,43.1,31.4,29.93,WNW,302,9.0,13.0,63,0.00,,,0.00,WUHU216DAVISVP2,2013-05-13 09:01:00,
2013-05-13 05:06:00,43.2,31.5,29.93,WNW,294,5.0,13.0,63,0.00,,,0.00,WUHU216DAVISVP2,2013-05-13 09:06:00,
2013-05-13 05:11:00,43.2,31.4,29.94,WNW,290,7.0,13.0,63,0.00,,,0.00,WUHU216DAVISVP2,2013-05-13 09:11:00,
2013-05-13 05:16:00,43.1,29.7,29.93,WNW,285,3.0,12.0,59,0.00,,,0.00,WUHU216DAVISVP2,2013-05-13 09:16:00,
2013-05-13 05:21:00,43.1,29.4,29.93,NW,307,4.0,9.0,58,0.00,,,0.00,WUHU216DAVISVP2,2013-05-13 09:21:00,
2013-05-13 05:26:00,43.1,29.8,29.94,SSW,211,3.0,9.0,59,0.00,,,0.00,WUHU216DAVISVP2,2013-05-13 09:26:00,
2013-05-13 05:31:00,43.0,28.8,29.94,NW,316,6.0,11.0,57,0.00,,,0.00,WUHU216DAVISVP2,2013-05-13 09:31:00,
2013-05-13 05:36:00,43.1,28.0,29.94,NW,306,4.7,14.0,55,0.00,,,0.00,WUHU216DAVISVP2,2013-05-13 09:36:00,
2013-05-13 05:41:00,43.1,28.5,29.94,WNW,297,3.0,14.0,56,0.00,,,0.00,WUHU216DAVISVP2,2013-05-13 09:41:00,
2013-05-13 05:46:00,43.1,28.9,29.94,WNW,287,3.0,14.0,57,0.00,,,0.00,WUHU216DAVISVP2,2013-05-13 09:46:00,
2013-05-13 05:51:00,43.0,28.8,29.94,NW,309,1.0,14.0,57,0.00,,,0.00,WUHU216DAVISVP2,2013-05-13 09:51:00,
2013-05-13 05:56:00,42.9,28.8,29.94,WNW,285,2.0,12.0,57,0.00,,,0.00,WUHU216DAVISVP2,2013-05-13 09:56:00,
2013-05-13 06:01:00,42.8,29.1,29.95,WNW,302,1.3,7.0,58,0.00,,,0.00,WUHU216DAVISVP2,2013-05-13 10:01:00,
2013-05-13 06:06:00,42.8,28.6,29.95,North,354,5.0,10.0,57,0.00,,,0.00,WUHU216DAVISVP2,2013-05-13 10:06:00,
2013-05-13 06:11:00,42.9,28.7,29.95,West,274,1.2,13.0,57,0.00,,,0.00,WUHU216DAVISVP2,2013-05-13 10:11:00,
2013-05-13 06:16:00,42.9,29.5,29.95,WSW,248,7.0,13.0,59,0.00,,,0.00,WUHU216DAVISVP2,2013-05-13 10:16:00,
2013-05-13 06:21:00,42.9,28.3,29.95,WNW,300,3.0,13.0,56,0.00,,,0.00,WUHU216DAVISVP2,2013-05-13 10:21:00,
2013-05-13 06:26:00,43.0,29.7,29.95,West,259,1.2,11.0,59,0.00,,,0.00,WUHU216DAVISVP2,2013-05-13 10:26:00,
2013-05-13 06:31:00,42.9,28.8,29.95,WNW,285,2.0,7.0,57,0.00,,,0.00,WUHU216DAVISVP2,2013-05-13 10:31:00,
2013-05-13 06:36:00,42.9,30.0,29.95,WNW,296,3.0,7.0,60,0.00,,,0.00,WUHU216DAVISVP2,2013-05-13 10:36:00,
2013-05-13 06:41:00,42.9,29.2,29.95,WSW,243,3.0,7.0,58,0.00,,,0.00,WUHU216DAVISVP2,2013-05-13 10:41:00,
2013-05-13 06:46:00,42.9,28.8,29.95,SW,229,4.0,6.0,57,0.00,,,0.00,WUHU216DAVISVP2,2013-05-13 10:46:00,
2013-05-13 06:51:00,42.9,29.6,29.95,WSW,255,5.0,6.0,59,0.00,,,0.00,WUHU216DAVISVP2,2013-05-13 10:51:00,
2013-05-13 06:56:00,43.0,29.3,29.96,WNW,286,1.6,6.0,58,0.00,,,0.00,WUHU216DAVISVP2,2013-05-13 10:56:00,
2013-05-13 07:01:00,43.1,28.5,29.96,WSW,258,5.1,9.0,56,0.00,,,0.00,WUHU216DAVISVP2,2013-05-13 11:01:00,
2013-05-13 07:06:00,43.2,27.7,29.96,WNW,288,3.4,9.0,54,0.00,,,0.00,WUHU216DAVISVP2,2013-05-13 11:06:00,
2013-05-13 07:11:00,43.3,28.7,29.96,West,280,2.9,9.0,56,0.00,,,0.00,WUHU216DAVISVP2,2013-05-13 11:11:00,
2013-05-13 07:16:00,43.4,28.3,29.97,West,275,2.6,9.0,55,0.00,,,0.00,WUHU216DAVISVP2,2013-05-13 11:16:00,
2013-05-13 07:21:00,43.5,28.8,29.97,West,280,2.6,9.0,56,0.00,,,0.00,WUHU216DAVISVP2,2013-05-13 11:21:00,
2013-05-13 07:26:00,43.5,27.9,29.97,West,268,4.5,8.0,54,0.00,,,0.00,WUHU216DAVISVP2,2013-05-13 11:26:00,
2013-05-13 07:31:00,43.6,28.0,29.97,WNW,287,5.0,10.0,54,0.00,,,0.00,WUHU216DAVISVP2,2013-05-13 11:31:00,
2013-05-13 07:36:00,43.6,27.1,29.97,NW,315,7.8,15.0,52,0.00,,,0.00,WUHU216DAVISVP2,2013-05-13 11:36:00,
2013-05-13 07:41:00,43.9,28.3,29.97,SW,233,2.0,15.0,54,0.00,,,0.00,WUHU216DAVISVP2,2013-05-13 11:41:00,
2013-05-13 07:46:00,44.0,27.0,29.97,West,277,5.1,15.0,51,0.00,,,0.00,WUHU216DAVISVP2,2013-05-13 11:46:00,
2013-05-13 07:51:00,44.1,26.6,29.98,West,281,5.3,15.0,50,0.00,,,0.00,WUHU216DAVISVP2,2013-05-13 11:51:00,
2013-05-13 07:56:00,44.3,28.7,29.98,WNW,294,5.0,12.0,54,0.00,,,0.00,WUHU216DAVISVP2,2013-05-13 11:56:00,
2013-05-13 08:01:00,44.3,26.8,29.99,NW,316,13.0,14.0,50,0.00,,,0.00,WUHU216DAVISVP2,2013-05-13 12:01:00,
2013-05-13 08:06:00,44.2,27.2,29.98,West,260,10.0,15.0,51,0.00,,,0.00,WUHU216DAVISVP2,2013-05-13 12:06:00,
2013-05-13 08:11:00,44.3,27.8,29.99,West,278,5.1,15.0,52,0.00,,,0.00,WUHU216DAVISVP2,2013-05-13 12:11:00,
2013-05-13 08:16:00,44.2,27.7,29.99,West,267,4.7,15.0,52,0.00,,,0.00,WUHU216DAVISVP2,2013-05-13 12:16:00,
2013-05-13 08:21:00,44.2,27.2,29.99,WNW,288,4.5,14.0,51,0.00,,,0.00,WUHU216DAVISVP2,2013-05-13 12:21:00,
2013-05-13 08:26:00,44.2,28.1,30.00,NNW,328,3.5,13.0,53,0.00,,,0.00,WUHU216DAVISVP2,2013-05-13 12:26:00,
2013-05-13 08:31:00,44.1,26.1,30.00,WNW,289,6.6,14.0,49,0.00,,,0.00,WUHU216DAVISVP2,2013-05-13 12:31:00,
2013-05-13 08:36:00,44.4,27.4,30.00,NW,312,8.0,14.0,51,0.00,,,0.00,WUHU216DAVISVP2,2013-05-13 12:36:00,
2013-05-13 08:41:00,44.5,27.9,30.00,NNW,328,5.0,14.0,52,0.00,,,0.00,WUHU216DAVISVP2,2013-05-13 12:41:00,
2013-05-13 08:46:00,44.7,27.2,30.00,NNW,329,7.2,14.0,50,0.00,,,0.00,WUHU216DAVISVP2,2013-05-13 12:46:00,
2013-05-13 08:51:00,45.0,27.9,30.00,WNW,297,3.2,14.0,51,0.00,,,0.00,WUHU216DAVISVP2,2013-05-13 12:51:00,
2013-05-13 08:56:00,45.3,27.7,30.00,NW,318,7.0,15.0,50,0.00,,,0.00,WUHU216DAVISVP2,2013-05-13 12:56:00,
2013-05-13 09:01:00,45.6,28.5,30.00,WNW,300,3.9,15.0,51,0.00,,,0.00,WUHU216DAVISVP2,2013-05-13 13:01:00,
2013-05-13 09:06:00,45.5,27.9,30.00,North,0,6.7,15.0,50,0.00,,,0.00,WUHU216DAVISVP2,2013-05-13 13:06:00,
2013-05-13 09:11:00,45.5,28.4,30.00,North,5,6.0,15.0,51,0.00,,,0.00,WUHU216DAVISVP2,2013-05-13 13:11:00,
2013-05-13 09:16:00,45.4,27.8,30.00,WSW,248,8.0,12.0,50,0.00,,,0.00,WUHU216DAVISVP2,2013-05-13 13:16:00,
2013-05-13 09:21:00,45.4,28.8,30.00,WNW,290,11.0,12.0,52,0.00,,,0.00,WUHU216DAVISVP2,2013-05-13 13:21:00,
2013-05-13 09:26:00,45.2,28.6,30.00,NNE,15,4.0,12.0,52,0.00,,,0.00,WUHU216DAVISVP2,2013-05-13 13:26:00,
2013-05-13 09:31:00,45.5,28.9,30.00,NW,304,7.2,14.0,52,0.00,,,0.00,WUHU216DAVISVP2,2013-05-13 13:31:00,
2013-05-13 09:36:00,45.6,29.0,30.00,WSW,249,4.0,14.0,52,0.00,,,0.00,WUHU216DAVISVP2,2013-05-13 13:36:00,
2013-05-13 09:41:00,46.1,29.0,30.00,NNW,334,11.0,14.0,51,0.00,,,0.00,WUHU216DAVISVP2,2013-05-13 13:41:00,
2013-05-13 09:46:00,46.4,28.8,30.00,WNW,293,5.6,14.0,50,0.00,,,0.00,WUHU216DAVISVP2,2013-05-13 13:46:00,
2013-05-13 09:51:00,46.3,29.1,30.01,NW,318,4.4,14.0,51,0.00,,,0.00,WUHU216DAVISVP2,2013-05-13 13:51:00,
2013-05-13 09:56:00,46.1,28.9,30.01,NNW,340,10.0,13.0,51,0.00,,,0.00,WUHU216DAVISVP2,2013-05-13 13:56:00,
2013-05-13 10:01:00,45.6,28.0,30.01,NNW,333,7.0,13.0,50,0.00,,,0.00,WUHU216DAVISVP2,2013-05-13 14:01:00,
2013-05-13 10:06:00,45.3,28.2,30.02,WNW,297,6.3,13.0,51,0.00,,,0.00,WUHU216DAVISVP2,2013-05-13 14:06:00,
2013-05-13 10:11:00,45.2,28.6,30.02,NW,311,4.1,15.0,52,0.00,,,0.00,WUHU216DAVISVP2,2013-05-13 14:11:00,
2013-05-13 10:16:00,45.6,29.5,30.02,NW,321,8.0,15.0,53,0.00,,,0.00,WUHU216DAVISVP2,2013-05-13 14:16:00,
2013-05-13 10:21:00,45.5,28.4,30.02,NNW,347,5.4,15.0,51,0.00,,,0.00,WUHU216DAVISVP2,2013-05-13 14:21:00,
2013-05-13 10:25:00,45.6,29.0,30.02,WNW,289,4.6,13.0,52,0.00,,,0.00,WUHU216DAVISVP2,2013-05-13 14:25:00,
2013-05-13 10:31:00,45.4,27.8,30.02,NNE,15,7.0,14.0,50,0.00,,,0.00,WUHU216DAVISVP2,2013-05-13 14:31:00,
2013-05-13 10:35:00,45.7,28.1,30.02,WNW,290,5.5,14.0,50,0.00,,,0.00,WUHU216DAVISVP2,2013-05-13 14:35:00,
2013-05-13 10:41:00,45.8,28.7,30.02,West,280,4.4,13.0,51,0.00,,,0.00,WUHU216DAVISVP2,2013-05-13 14:41:00,
2013-05-13 10:46:00,45.7,28.6,30.03,West,260,5.0,13.0,51,0.00,,,0.00,WUHU216DAVISVP2,2013-05-13 14:46:00,
2013-05-13 10:51:00,46.2,29.5,30.03,SW,220,2.0,12.0,52,0.00,,,0.00,WUHU216DAVISVP2,2013-05-13 14:51:00,
2013-05-13 10:56:00,46.3,28.7,30.02,NW,313,3.0,10.0,50,0.00,,,0.00,WUHU216DAVISVP2,2013-05-13 14:56:00,
2013-05-13 11:01:00,46.2,28.0,30.03,NW,316,6.0,10.0,49,0.00,,,0.00,WUHU216DAVISVP2,2013-05-13 15:01:00,
2013-05-13 11:06:00,46.2,28.6,30.03,West,269,2.1,11.0,50,0.00,,,0.00,WUHU216DAVISVP2,2013-05-13 15:06:00,
2013-05-13 11:11:00,46.5,28.3,30.03,WNW,290,5.0,11.0,49,0.00,,,0.00,WUHU216DAVISVP2,2013-05-13 15:11:00,
2013-05-13 11:16:00,47.0,28.3,30.03,NW,318,3.5,11.0,48,0.00,,,0.00,WUHU216DAVISVP2,2013-05-13 15:16:00,
2013-05-13 11:20:00,47.1,30.4,30.03,WNW,295,2.9,11.0,52,0.00,,,0.00,WUHU216DAVISVP2,2013-05-13 15:20:00,
2013-05-13 11:26:00,47.0,28.8,30.03,WSW,240,3.0,8.0,49,0.00,,,0.00,WUHU216DAVISVP2,2013-05-13 15:26:00,
2013-05-13 11:31:00,47.0,28.3,30.03,North,4,2.5,8.0,48,0.00,,,0.00,WUHU216DAVISVP2,2013-05-13 15:31:00,
2013-05-13 11:36:00,47.3,29.1,30.03,NNW,337,4.6,9.0,49,0.00,,,0.00,WUHU216DAVISVP2,2013-05-13 15:36:00,
2013-05-13 11:41:00,47.1,28.4,30.03,WNW,293,3.5,9.0,48,0.00,,,0.00,WUHU216DAVISVP2,2013-05-13 15:41:00,
2013-05-13 11:46:00,47.1,28.9,30.03,West,278,6.0,9.0,49,0.00,,,0.00,WUHU216DAVISVP2,2013-05-13 15:46:00,
2013-05-13 11:50:00,47.3,28.5,30.03,NW,307,4.3,10.0,48,0.00,,,0.00,WUHU216DAVISVP2,2013-05-13 15:50:00,
2013-05-13 11:56:00,47.8,30.0,30.03,West,263,3.1,10.0,50,0.00,,,0.00,WUHU216DAVISVP2,2013-05-13 15:56:00,
2013-05-13 12:00:00,47.9,29.1,30.03,WNW,295,5.4,11.0,48,0.00,,,0.00,WUHU216DAVISVP2,2013-05-13 16:00:00,
2013-05-13 12:05:00,47.9,29.1,30.03,NNW,327,2.5,11.0,48,0.00,,,0.00,WUHU216DAVISVP2,2013-05-13 16:05:00,
2013-05-13 12:11:00,47.9,29.6,30.03,NW,314,4.2,10.0,49,0.00,,,0.00,WUHU216DAVISVP2,2013-05-13 16:11:00,
2013-05-13 12:16:00,47.7,29.9,30.03,North,11,6.8,10.0,50,0.00,,,0.00,WUHU216DAVISVP2,2013-05-13 16:16:00,
2013-05-13 12:21:00,47.7,28.4,30.03,WNW,302,6.0,10.0,47,0.00,,,0.00,WUHU216DAVISVP2,2013-05-13 16:21:00,
2013-05-13 12:25:00,47.6,29.3,30.03,NNW,340,5.0,10.0,49,0.00,,,0.00,WUHU216DAVISVP2,2013-05-13 16:25:00,
2013-05-13 12:30:00,47.7,28.9,30.03,WNW,297,8.0,10.0,48,0.00,,,0.00,WUHU216DAVISVP2,2013-05-13 16:30:00,
2013-05-13 12:35:00,47.8,30.0,30.03,WNW,292,2.9,11.0,50,0.00,,,0.00,WUHU216DAVISVP2,2013-05-13 16:35:00,
2013-05-13 12:41:00,48.0,29.2,30.03,West,270,4.3,11.0,48,0.00,,,0.00,WUHU216DAVISVP2,2013-05-13 16:41:00,
2013-05-13 12:46:00,48.1,29.8,30.03,NW,316,4.1,11.0,49,0.00,,,0.00,WUHU216DAVISVP2,2013-05-13 16:46:00,
2013-05-13 12:51:00,48.2,29.9,30.03,WNW,296,5.0,12.0,49,0.00,,,0.00,WUHU216DAVISVP2,2013-05-13 16:51:00,
2013-05-13 12:56:00,48.6,29.7,30.03,WNW,291,5.0,12.0,48,0.00,,,0.00,WUHU216DAVISVP2,2013-05-13 16:56:00,
2013-05-13 13:00:00,48.3,30.0,30.03,NW,306,5.6,12.0,49,0.00,,,0.00,WUHU216DAVISVP2,2013-05-13 17:00:00,
2013-05-13 13:06:00,48.1,28.7,30.03,West,260,4.0,9.0,47,0.00,,,0.00,WUHU216DAVISVP2,2013-05-13 17:06:00,
2013-05-13 13:11:00,48.7,30.9,30.03,WNW,299,4.0,9.0,50,0.00,,,0.00,WUHU216DAVISVP2,2013-05-13 17:11:00,
2013-05-13 13:15:00,48.5,29.1,30.03,WNW,290,3.0,12.0,47,0.00,,,0.00,WUHU216DAVISVP2,2013-05-13 17:15:00,
2013-05-13 13:20:00,48.4,29.5,30.03,West,280,4.3,12.0,48,0.00,,,0.00,WUHU216DAVISVP2,2013-05-13 17:20:00,
2013-05-13 13:26:00,48.3,30.0,30.03,West,269,2.2,11.0,49,0.00,,,0.00,WUHU216DAVISVP2,2013-05-13 17:26:00,
2013-05-13 13:31:00,48.9,29.5,30.03,NNW,332,4.3,11.0,47,0.00,,,0.00,WUHU216DAVISVP2,2013-05-13 17:31:00,
2013-05-13 13:36:00,49.0,29.6,30.03,WNW,291,4.0,12.0,47,0.00,,,0.00,WUHU216DAVISVP2,2013-05-13 17:36:00,
2013-05-13 13:41:00,49.0,29.0,30.03,NW,315,4.1,12.0,46,0.00,,,0.00,WUHU216DAVISVP2,2013-05-13 17:41:00,
2013-05-13 13:46:00,49.3,28.7,30.03,NW,308,4.7,12.0,45,0.00,,,0.00,WUHU216DAVISVP2,2013-05-13 17:46:00,
2013-05-13 13:51:00,49.0,28.5,30.03,SW,232,9.0,11.0,45,0.00,,,0.00,WUHU216DAVISVP2,2013-05-13 17:51:00,
2013-05-13 13:56:00,49.0,29.6,30.03,North,356,5.0,11.0,47,0.00,,,0.00,WUHU216DAVISVP2,2013-05-13 17:56:00,
2013-05-13 14:01:00,49.5,29.0,30.04,WNW,302,4.4,11.0,45,0.00,,,0.00,WUHU216DAVISVP2,2013-05-13 18:01:00,
2013-05-13 14:06:00,49.9,29.9,30.03,WNW,300,10.0,13.0,46,0.00,,,0.00,WUHU216DAVISVP2,2013-05-13 18:06:00,
2013-05-13 14:11:00,50.1,30.6,30.03,WNW,284,3.0,13.0,47,0.00,,,0.00,WUHU216DAVISVP2,2013-05-13 18:11:00,
2013-05-13 14:16:00,49.9,28.7,30.03,West,281,6.1,14.0,44,0.00,,,0.00,WUHU216DAVISVP2,2013-05-13 18:16:00,
2013-05-13 14:21:00,49.7,28.0,30.04,NW,309,7.0,14.0,43,0.00,,,0.00,WUHU216DAVISVP2,2013-05-13 18:21:00,
2013-05-13 14:26:00,49.3,28.7,30.03,NNW,329,6.8,14.0,45,0.00,,,0.00,WUHU216DAVISVP2,2013-05-13 18:26:00,
2013-05-13 14:31:00,49.5,28.4,30.03,NNW,329,6.0,14.0,44,0.00,,,0.00,WUHU216DAVISVP2,2013-05-13 18:31:00,
2013-05-13 14:36:00,49.4,28.8,30.03,West,279,5.4,14.0,45,0.00,,,0.00,WUHU216DAVISVP2,2013-05-13 18:36:00,
2013-05-13 14:41:00,49.6,29.6,30.03,WNW,298,3.2,14.0,46,0.00,,,0.00,WUHU216DAVISVP2,2013-05-13 18:41:00,
2013-05-13 14:46:00,49.6,29.6,30.04,WNW,290,8.0,14.0,46,0.00,,,0.00,WUHU216DAVISVP2,2013-05-13 18:46:00,
2013-05-13 14:51:00,49.1,30.7,30.03,NW,313,2.4,13.0,49,0.00,,,0.00,WUHU216DAVISVP2,2013-05-13 18:51:00,
2013-05-13 14:56:00,49.1,29.1,30.03,NW,323,4.8,13.0,46,0.00,,,0.00,WUHU216DAVISVP2,2013-05-13 18:56:00,
2013-05-13 15:01:00,49.2,29.2,30.03,NW,317,7.6,15.0,46,0.00,,,0.00,WUHU216DAVISVP2,2013-05-13 19:01:00,
2013-05-13 15:06:00,49.2,29.2,30.03,West,274,9.0,15.0,46,0.00,,,0.00,WUHU216DAVISVP2,2013-05-13 19:06:00,
2013-05-13 15:11:00,49.2,29.7,30.03,NNW,342,5.0,15.0,47,0.00,,,0.00,WUHU216DAVISVP2,2013-05-13 19:11:00,
2013-05-13 15:16:00,49.0,29.0,30.03,NW,322,6.8,15.0,46,0.00,,,0.00,WUHU216DAVISVP2,2013-05-13 19:16:00,
2013-05-13 15:21:00,48.7,29.3,30.03,NW,322,5.0,15.0,47,0.00,,,0.00,WUHU216DAVISVP2,2013-05-13 19:21:00,
2013-05-13 15:26:00,48.7,29.8,30.03,WNW,293,3.0,15.0,48,0.00,,,0.00,WUHU216DAVISVP2,2013-05-13 19:26:00,
2013-05-13 15:31:00,49.0,29.0,30.03,SSW,194,6.0,15.0,46,0.00,,,0.00,WUHU216DAVISVP2,2013-05-13 19:31:00,
2013-05-13 15:36:00,49.9,29.8,30.02,NW,306,4.8,10.0,46,0.00,,,0.00,WUHU216DAVISVP2,2013-05-13 19:36:00,
2013-05-13 15:41:00,49.8,29.2,30.02,West,261,4.7,12.0,45,0.00,,,0.00,WUHU216DAVISVP2,2013-05-13 19:41:00,
2013-05-13 15:46:00,49.7,29.1,30.02,WNW,302,4.0,12.0,45,0.00,,,0.00,WUHU216DAVISVP2,2013-05-13 19:46:00,
2013-05-13 15:51:00,49.7,29.2,30.02,WNW,296,9.0,12.0,45,0.00,,,0.00,WUHU216DAVISVP2,2013-05-13 19:51:00,
2013-05-13 15:56:00,49.7,30.8,30.03,West,263,3.0,12.0,48,0.00,,,0.00,WUHU216DAVISVP2,2013-05-13 19:56:00,
2013-05-13 16:01:00,49.9,28.8,30.03,NNW,331,4.7,12.0,44,0.00,,,0.00,WUHU216DAVISVP2,2013-05-13 20:01:00,
2013-05-13 16:06:00,49.6,29.1,30.02,NNE,26,4.0,12.0,45,0.00,,,0.00,WUHU216DAVISVP2,2013-05-13 20:06:00,
2013-05-13 16:11:00,49.5,28.5,30.02,NW,304,5.3,12.0,44,0.00,,,0.00,WUHU216DAVISVP2,2013-05-13 20:11:00,
2013-05-13 16:16:00,49.5,29.5,30.02,NNE,20,2.0,12.0,46,0.00,,,0.00,WUHU216DAVISVP2,2013-05-13 20:16:00,
2013-05-13 16:21:00,49.5,28.4,30.03,NNW,340,2.2,11.0,44,0.00,,,0.00,WUHU216DAVISVP2,2013-05-13 20:21:00,
2013-05-13 16:26:00,49.5,28.4,30.03,WNW,284,5.3,12.0,44,0.00,,,0.00,WUHU216DAVISVP2,2013-05-13 20:26:00,
2013-05-13 16:31:00,49.4,29.9,30.03,NW,319,3.2,12.0,47,0.00,,,0.00,WUHU216DAVISVP2,2013-05-13 20:31:00,
2013-05-13 16:36:00,49.3,29.3,30.03,NNW,327,6.5,12.0,46,0.00,,,0.00,WUHU216DAVISVP2,2013-05-13 20:36:00,
2013-05-13 16:41:00,49.2,30.8,30.03,North,351,6.1,14.0,49,0.00,,,0.00,WUHU216DAVISVP2,2013-05-13 20:41:00,
2013-05-13 16:46:00,49.2,30.8,30.03,NNW,336,4.1,14.0,49,0.00,,,0.00,WUHU216DAVISVP2,2013-05-13 20:46:00,
2013-05-13 16:51:00,49.1,30.2,30.03,NNW,332,6.3,14.0,48,0.00,,,0.00,WUHU216DAVISVP2,2013-05-13 20:51:00,
2013-05-13 16:56:00,48.9,29.5,30.03,WNW,302,7.0,14.0,47,0.00,,,0.00,WUHU216DAVISVP2,2013-05-13 20:56:00,
2013-05-13 17:01:00,48.9,30.0,30.03,North,360,9.0,14.0,48,0.00,,,0.00,WUHU216DAVISVP2,2013-05-13 21:01:00,
2013-05-13 17:06:00,49.3,30.4,30.03,NW,326,6.0,13.0,48,0.00,,,0.00,WUHU216DAVISVP2,2013-05-13 21:06:00,
2013-05-13 17:11:00,49.6,30.2,30.03,NNW,343,6.6,13.0,47,0.00,,,0.00,WUHU216DAVISVP2,2013-05-13 21:11:00,
2013-05-13 17:16:00,50.4,30.3,30.03,NW,324,4.0,12.0,46,0.00,,,0.00,WUHU216DAVISVP2,2013-05-13 21:16:00,
2013-05-13 17:21:00,50.7,30.6,30.03,NW,314,9.0,12.0,46,0.00,,,0.00,WUHU216DAVISVP2,2013-05-13 21:21:00,
2013-05-13 17:26:00,50.6,29.9,30.02,WNW,301,3.8,12.0,45,0.00,,,0.00,WUHU216DAVISVP2,2013-05-13 21:26:00,
2013-05-13 17:31:00,50.2,29.6,30.02,NW,316,5.0,11.0,45,0.00,,,0.00,WUHU216DAVISVP2,2013-05-13 21:31:00,
2013-05-13 17:36:00,50.5,30.4,30.02,NW,316,1.8,11.0,46,0.00,,,0.00,WUHU216DAVISVP2,2013-05-13 21:36:00,
2013-05-13 17:41:00,50.8,30.7,30.03,NW,325,9.0,12.0,46,0.00,,,0.00,WUHU216DAVISVP2,2013-05-13 21:41:00,
2013-05-13 17:46:00,50.5,30.4,30.03,NNW,334,4.8,12.0,46,0.00,,,0.00,WUHU216DAVISVP2,2013-05-13 21:46:00,
2013-05-13 17:51:00,50.4,29.8,30.02,NW,319,7.7,15.0,45,0.00,,,0.00,WUHU216DAVISVP2,2013-05-13 21:51:00,
2013-05-13 17:56:00,50.4,29.8,30.02,North,6,6.9,15.0,45,0.00,,,0.00,WUHU216DAVISVP2,2013-05-13 21:56:00,
2013-05-13 18:01:00,50.3,29.7,30.02,WNW,289,6.1,15.0,45,0.00,,,0.00,WUHU216DAVISVP2,2013-05-13 22:01:00,
2013-05-13 18:06:00,49.7,29.7,30.02,WNW,285,5.8,15.0,46,0.00,,,0.00,WUHU216DAVISVP2,2013-05-13 22:06:00,
2013-05-13 18:11:00,49.9,30.4,30.02,NW,311,4.9,15.0,47,0.00,,,0.00,WUHU216DAVISVP2,2013-05-13 22:11:00,
2013-05-13 18:16:00,49.8,30.3,30.02,NNW,333,5.5,15.0,47,0.00,,,0.00,WUHU216DAVISVP2,2013-05-13 22:16:00,
2013-05-13 18:21:00,49.9,30.4,30.02,NW,304,5.5,13.0,47,0.00,,,0.00,WUHU216DAVISVP2,2013-05-13 22:21:00,
2013-05-13 18:26:00,49.7,30.2,30.02,NW,313,3.9,12.0,47,0.00,,,0.00,WUHU216DAVISVP2,2013-05-13 22:26:00,
2013-05-13 18:31:00,49.7,30.2,30.03,WNW,302,3.5,12.0,47,0.00,,,0.00,WUHU216DAVISVP2,2013-05-13 22:31:00,
2013-05-13 18:36:00,49.9,30.9,30.03,WSW,252,8.0,12.0,48,0.00,,,0.00,WUHU216DAVISVP2,2013-05-13 22:36:00,
2013-05-13 18:41:00,49.9,30.9,30.02,WSW,258,5.0,14.0,48,0.00,,,0.00,WUHU216DAVISVP2,2013-05-13 22:41:00,
2013-05-13 18:46:00,49.8,30.3,30.03,NNW,333,5.4,14.0,47,0.00,,,0.00,WUHU216DAVISVP2,2013-05-13 22:46:00,
2013-05-13 18:51:00,49.6,30.6,30.03,NW,319,1.9,13.0,48,0.00,,,0.00,WUHU216DAVISVP2,2013-05-13 22:51:00,
2013-05-13 18:56:00,49.2,30.8,30.03,NNW,343,2.0,11.0,49,0.00,,,0.00,WUHU216DAVISVP2,2013-05-13 22:56:00,
2013-05-13 19:01:00,48.8,30.9,30.03,West,269,1.4,11.0,50,0.00,,,0.00,WUHU216DAVISVP2,2013-05-13 23:01:00,
2013-05-13 19:06:00,48.6,31.3,30.03,ESE,117,3.0,8.0,51,0.00,,,0.00,WUHU216DAVISVP2,2013-05-13 23:06:00,
2013-05-13 19:11:00,48.9,30.5,30.03,NW,312,4.2,10.0,49,0.00,,,0.00,WUHU216DAVISVP2,2013-05-13 23:11:00,
2013-05-13 19:16:00,49.3,30.9,30.03,WNW,301,5.7,10.0,49,0.00,,,0.00,WUHU216DAVISVP2,2013-05-13 23:16:00,
2013-05-13 19:21:00,49.7,31.3,30.03,NW,316,2.0,10.0,49,0.00,,,0.00,WUHU216DAVISVP2,2013-05-13 23:21:00,
2013-05-13 19:26:00,49.9,30.9,30.03,WNW,290,4.0,10.0,48,0.00,,,0.00,WUHU216DAVISVP2,2013-05-13 23:26:00,
2013-05-13 19:31:00,49.3,30.9,30.03,WNW,300,3.2,10.0,49,0.00,,,0.00,WUHU216DAVISVP2,2013-05-13 23:31:00,
2013-05-13 19:36:00,48.7,31.4,30.04,West,266,2.7,7.0,51,0.00,,,0.00,WUHU216DAVISVP2,2013-05-13 23:36:00,
2013-05-13 19:41:00,48.2,30.4,30.04,WNW,302,4.6,10.0,50,0.00,,,0.00,WUHU216DAVISVP2,2013-05-13 23:41:00,
2013-05-13 19:46:00,47.9,30.6,30.04,WNW,284,3.7,10.0,51,0.00,,,0.00,WUHU216DAVISVP2,2013-05-13 23:46:00,
2013-05-13 19:51:00,47.5,30.7,30.04,WNW,284,3.0,10.0,52,0.00,,,0.00,WUHU216DAVISVP2,2013-05-13 23:51:00,
2013-05-13 19:56:00,47.3,30.5,30.04,NW,311,1.8,10.0,52,0.00,,,0.00,WUHU216DAVISVP2,2013-05-13 23:56:00,
2013-05-13 20:01:00,46.8,30.6,30.04,WNW,303,3.1,9.0,53,0.00,,,0.00,WUHU216DAVISVP2,2013-05-14 00:01:00,
2013-05-13 20:06:00,46.4,31.1,30.04,West,278,1.5,8.0,55,0.00,,,0.00,WUHU216DAVISVP2,2013-05-14 00:06:00,
2013-05-13 20:11:00,46.1,31.3,30.05,WSW,247,2.0,8.0,56,0.00,,,0.00,WUHU216DAVISVP2,2013-05-14 00:11:00,
2013-05-13 20:16:00,45.7,31.8,30.05,WNW,284,1.4,6.0,58,0.00,,,0.00,WUHU216DAVISVP2,2013-05-14 00:16:00,
2013-05-13 20:21:00,45.4,31.0,30.05,WNW,289,1.5,3.0,57,0.00,,,0.00,WUHU216DAVISVP2,2013-05-14 00:21:00,
2013-05-13 20:26:00,45.1,31.7,30.05,WNW,284,1.1,3.0,59,0.00,,,0.00,WUHU216DAVISVP2,2013-05-14 00:26:00,
2013-05-13 20:31:00,44.7,31.3,30.05,West,273,0.0,3.0,59,0.00,,,0.00,WUHU216DAVISVP2,2013-05-14 00:31:00,
2013-05-13 20:36:00,44.3,31.4,30.05,West,273,0.0,3.0,60,0.00,,,0.00,WUHU216DAVISVP2,2013-05-14 00:36:00,
2013-05-13 20:41:00,43.7,32.4,30.05,West,273,0.0,2.0,64,0.00,,,0.00,WUHU216DAVISVP2,2013-05-14 00:41:00,
2013-05-13 20:46:00,42.9,33.9,30.05,West,273,0.0,1.0,70,0.00,,,0.00,WUHU216DAVISVP2,2013-05-14 00:46:00,
2013-05-13 20:51:00,42.2,33.5,30.06,West,273,0.0,0.0,71,0.00,,,0.00,WUHU216DAVISVP2,2013-05-14 00:51:00,
2013-05-13 20:56:00,41.5,33.6,30.06,West,273,0.0,0.0,73,0.00,,,0.00,WUHU216DAVISVP2,2013-05-14 00:56:00,
2013-05-13 21:01:00,41.0,33.4,30.06,West,272,0.0,0.0,74,0.00,,,0.00,WUHU216DAVISVP2,2013-05-14 01:01:00,
2013-05-13 21:06:00,40.4,33.2,30.06,West,273,0.0,0.0,75,0.00,,,0.00,WUHU216DAVISVP2,2013-05-14 01:06:00,
2013-05-13 21:11:00,39.9,33.6,30.07,West,273,0.0,0.0,78,0.00,,,0.00,WUHU216DAVISVP2,2013-05-14 01:11:00,
2013-05-13 21:16:00,39.4,33.5,30.07,West,273,0.0,0.0,79,0.00,,,0.00,WUHU216DAVISVP2,2013-05-14 01:16:00,
2013-05-13 21:21:00,38.9,33.3,30.07,West,273,0.0,0.0,80,0.00,,,0.00,WUHU216DAVISVP2,2013-05-14 01:21:00,
2013-05-13 21:26:00,38.4,33.1,30.07,West,272,0.0,0.0,81,0.00,,,0.00,WUHU216DAVISVP2,2013-05-14 01:26:00,
2013-05-13 21:31:00,38.0,33.0,30.07,West,273,0.0,0.0,82,0.00,,,0.00,WUHU216DAVISVP2,2013-05-14 01:31:00,
2013-05-13 21:36:00,37.6,32.6,30.08,West,272,0.0,0.0,82,0.00,,,0.00,WUHU216DAVISVP2,2013-05-14 01:36:00,
2013-05-13 21:41:00,37.3,32.9,30.08,West,273,0.0,0.0,84,0.00,,,0.00,WUHU216DAVISVP2,2013-05-14 01:41:00,
2013-05-13 21:46:00,37.0,32.6,30.08,West,272,0.0,0.0,84,0.00,,,0.00,WUHU216DAVISVP2,2013-05-14 01:46:00,
2013-05-13 21:51:00,36.6,32.2,30.08,West,273,0.0,0.0,84,0.00,,,0.00,WUHU216DAVISVP2,2013-05-14 01:51:00,
2013-05-13 21:56:00,36.0,31.9,30.08,West,273,0.0,0.0,85,0.00,,,0.00,WUHU216DAVISVP2,2013-05-14 01:56:00,
2013-05-13 22:01:00,35.9,32.4,30.09,West,273,0.0,0.0,87,0.00,,,0.00,WUHU216DAVISVP2,2013-05-14 02:01:00,
2013-05-13 22:06:00,35.9,32.7,30.09,West,272,0.0,0.0,88,0.00,,,0.00,WUHU216DAVISVP2,2013-05-14 02:06:00,
2013-05-13 22:11:00,35.8,32.8,30.09,West,273,0.0,0.0,89,0.00,,,0.00,WUHU216DAVISVP2,2013-05-14 02:11:00,
2013-05-13 22:16:00,35.7,32.7,30.09,West,273,0.0,0.0,89,0.00,,,0.00,WUHU216DAVISVP2,2013-05-14 02:16:00,
2013-05-13 22:21:00,35.5,32.5,30.09,West,273,0.0,0.0,89,0.00,,,0.00,WUHU216DAVISVP2,2013-05-14 02:21:00,
2013-05-13 22:26:00,35.3,32.1,30.09,West,273,0.0,0.0,88,0.00,,,0.00,WUHU216DAVISVP2,2013-05-14 02:26:00,
2013-05-13 22:31:00,35.3,32.1,30.09,West,273,0.0,0.0,88,0.00,,,0.00,WUHU216DAVISVP2,2013-05-14 02:31:00,
2013-05-13 22:36:00,35.2,32.2,30.09,West,273,0.0,0.0,89,0.00,,,0.00,WUHU216DAVISVP2,2013-05-14 02:36:00,
2013-05-13 22:41:00,35.1,32.4,30.09,West,272,0.0,0.0,90,0.00,,,0.00,WUHU216DAVISVP2,2013-05-14 02:41:00,
2013-05-13 22:46:00,35.1,32.4,30.09,West,273,0.0,0.0,90,0.00,,,0.00,WUHU216DAVISVP2,2013-05-14 02:46:00,
2013-05-13 22:51:00,35.0,32.6,30.09,West,272,0.0,0.0,91,0.00,,,0.00,WUHU216DAVISVP2,2013-05-14 02:51:00,
2013-05-13 22:56:00,34.8,32.4,30.09,West,273,0.0,0.0,91,0.00,,,0.00,WUHU216DAVISVP2,2013-05-14 02:56:00,
2013-05-13 23:01:00,34.8,32.4,30.10,West,272,0.0,0.0,91,0.00,,,0.00,WUHU216DAVISVP2,2013-05-14 03:01:00,
2013-05-13 23:06:00,34.9,32.5,30.10,West,272,0.0,0.0,91,0.00,,,0.00,WUHU216DAVISVP2,2013-05-14 03:06:00,
2013-05-13 23:11:00,34.8,32.1,30.10,West,273,0.0,0.0,90,0.00,,,0.00,WUHU216DAVISVP2,2013-05-14 03:11:00,
2013-05-13 23:16:00,34.7,32.1,30.10,West,273,0.0,0.0,90,0.00,,,0.00,WUHU216DAVISVP2,2013-05-14 03:16:00,
2013-05-13 23:21:00,34.5,31.9,30.10,West,273,0.0,0.0,90,0.00,,,0.00,WUHU216DAVISVP2,2013-05-14 03:21:00,
2013-05-13 23:26:00,34.3,31.7,30.10,West,272,0.0,0.0,90,0.00,,,0.00,WUHU216DAVISVP2,2013-05-14 03:26:00,
2013-05-13 23:31:00,34.0,31.3,30.10,West,273,0.0,0.0,90,0.00,,,0.00,WUHU216DAVISVP2,2013-05-14 03:31:00,
2013-05-13 23:36:00,33.6,30.9,30.10,West,273,0.0,0.0,90,0.00,,,0.00,WUHU216DAVISVP2,2013-05-14 03:36:00,
2013-05-13 23:41:00,33.1,30.4,30.10,West,273,0.0,0.0,90,0.00,,,0.00,WUHU216DAVISVP2,2013-05-14 03:41:00,
2013-05-13 23:46:00,32.8,30.4,30.10,West,272,0.0,0.0,91,0.00,,,0.00,WUHU216DAVISVP2,2013-05-14 03:46:00,
2013-05-13 23:51:00,32.6,30.2,30.11,West,273,0.0,0.0,91,0.00,,,0.00,WUHU216DAVISVP2,2013-05-14 03:51:00,
2013-05-13 23:56:00,32.2,29.8,30.11,West,272,0.0,0.0,91,0.00,,,0.00,WUHU216DAVISVP2,2013-05-14 03:56:00,